Time;durP1;ratioP1;P1;durP2;ratioP2;P2;SDS_P1;SDS_P2;PMS_P1;PMS_P2;Temp;Humidity;BMP_temperature;BMP_pressure;BME280_temperature;BME280_humidity;BME280_pressure;Samples;Min_cycle;Max_cycle;Signal;HPM_P1;HPM_P2
2022/02/20 00:00:42;;;;;;;;;;;4.30;99.90;;;;;;5071778;28;20016;-62
2022/02/20 00:03:08;;;;;;;;;;;4.30;99.90;;;;;;5071322;28;20423;-62
2022/02/20 00:05:33;;;;;;;;;;;4.30;99.90;;;;;;5071604;28;19924;-62
2022/02/20 00:07:59;;;;;;;;;;;4.20;99.90;;;;;;5071819;28;19916;-62
2022/02/20 00:10:25;;;;;;;;;;;4.10;99.90;;;;;;5071961;28;19924;-62
2022/02/20 00:12:50;;;;;;;;;;;4.10;99.90;;;;;;5071856;28;19955;-63
2022/02/20 00:15:16;;;;;;;;;;;4.10;99.90;;;;;;5071636;28;20365;-62
2022/02/20 00:17:42;;;;;;;;;;;4.00;99.90;;;;;;5071538;28;19916;-62
2022/02/20 00:20:08;;;;;;;;;;;4.00;99.90;;;;;;5071231;28;19916;-62
2022/02/20 00:22:34;;;;;;;;;;;4.00;99.90;;;;;;5074684;28;19916;-62
2022/02/20 00:25:00;;;;;;;;;;;4.00;99.90;;;;;;5075186;28;19916;-62
2022/02/20 00:27:27;;;;;;;;;;;3.90;99.90;;;;;;5074867;28;20007;-62
2022/02/20 00:29:53;;;;;;;;;;;3.80;99.90;;;;;;5073737;28;20308;-62
2022/02/20 00:32:18;;;;;;;;;;;3.70;99.90;;;;;;5075158;28;19922;-62
2022/02/20 00:34:44;;;;;;;;;;;3.80;99.90;;;;;;5075064;28;20386;-62
2022/02/20 00:37:09;;;;;;;;;;;3.80;99.90;;;;;;5075030;28;19974;-61
2022/02/20 00:39:35;;;;;;;;;;;3.80;99.90;;;;;;5075360;28;20342;-62
2022/02/20 00:42:00;;;;;;;;;;;3.80;99.90;;;;;;5075092;28;19917;-62
2022/02/20 00:44:26;;;;;;;;;;;3.70;99.90;;;;;;5074960;28;20366;-62
2022/02/20 00:46:51;;;;;;;;;;;3.70;99.90;;;;;;5074781;28;19916;-62
2022/02/20 00:49:17;;;;;;;;;;;3.80;99.90;;;;;;5074744;28;19961;-61
2022/02/20 00:51:43;;;;;;;;;;;3.80;99.90;;;;;;5074705;28;20327;-61
2022/02/20 00:54:08;;;;;;;;;;;3.60;99.90;;;;;;5075021;28;19969;-61
2022/02/20 00:56:35;;;;;;;;;;;3.70;99.90;;;;;;5073450;28;20468;-62
2022/02/20 00:59:01;;;;;;;;;;;3.70;99.90;;;;;;5074801;28;19916;-62
2022/02/20 01:01:26;;;;;;;;;;;3.70;99.90;;;;;;5074630;28;19963;-62
2022/02/20 01:03:52;;;;;;;;;;;3.70;99.90;;;;;;5074247;28;20015;-62
2022/02/20 01:06:18;;;;;;;;;;;3.80;99.90;;;;;;5074527;28;19916;-62
2022/02/20 01:08:43;;;;;;;;;;;3.70;99.90;;;;;;5074476;28;19975;-62
2022/02/20 01:11:09;;;;;;;;;;;3.80;99.90;;;;;;5074488;28;19924;-62
2022/02/20 01:13:35;;;;;;;;;;;3.80;99.90;;;;;;5072512;28;20011;-62
2022/02/20 01:16:00;;;;;;;;;;;3.80;99.90;;;;;;5074624;28;19916;-62
2022/02/20 01:18:26;;;;;;;;;;;3.90;99.90;;;;;;5074579;28;20274;-62
2022/02/20 01:20:51;;;;;;;;;;;3.80;99.90;;;;;;5073933;28;19920;-62
2022/02/20 01:23:17;;;;;;;;;;;3.90;99.90;;;;;;5073969;28;19973;-62
2022/02/20 01:25:43;;;;;;;;;;;3.90;99.90;;;;;;5074012;28;19999;-62
2022/02/20 01:28:08;;;;;;;;;;;3.90;99.90;;;;;;5073589;28;19924;-62
2022/02/20 01:30:34;;;;;;;;;;;3.80;99.90;;;;;;5073586;28;20398;-62
2022/02/20 01:32:59;;;;;;;;;;;3.80;99.90;;;;;;5072609;28;19920;-62
2022/02/20 01:35:25;;;;;;;;;;;3.80;99.90;;;;;;5073633;28;19923;-61
2022/02/20 01:37:50;;;;;;;;;;;3.80;99.90;;;;;;5073761;28;19940;-61
2022/02/20 01:40:16;;;;;;;;;;;3.80;99.90;;;;;;5073494;28;19921;-61
2022/02/20 01:42:42;;;;;;;;;;;3.80;99.90;;;;;;5073624;28;19916;-61
2022/02/20 01:45:12;;;;;;;;;;;3.70;99.90;;;;;;5073562;28;19916;-62
2022/02/20 01:47:37;;;;;;;;;;;3.80;99.90;;;;;;5072017;28;19978;-62
2022/02/20 01:50:03;;;;;;;;;;;3.80;99.90;;;;;;5073239;28;19924;-62
2022/02/20 01:52:28;;;;;;;;;;;3.70;99.90;;;;;;5073174;28;19916;-62
2022/02/20 01:54:54;;;;;;;;;;;3.80;99.90;;;;;;5073327;28;19981;-61
2022/02/20 01:57:19;;;;;;;;;;;3.80;99.90;;;;;;5073895;28;20270;-62
2022/02/20 01:59:45;;;;;;;;;;;3.80;99.90;;;;;;5073380;28;19917;-61
2022/02/20 02:02:11;;;;;;;;;;;3.80;99.90;;;;;;5073669;28;20050;-61
2022/02/20 02:04:36;;;;;;;;;;;3.80;99.90;;;;;;5073260;28;19920;-61
2022/02/20 02:07:02;;;;;;;;;;;3.80;99.90;;;;;;5073322;28;19923;-61
2022/02/20 02:09:28;;;;;;;;;;;3.80;99.90;;;;;;5073462;28;20259;-61
2022/02/20 02:11:53;;;;;;;;;;;3.80;99.90;;;;;;5073189;28;19916;-61
2022/02/20 02:14:19;;;;;;;;;;;3.90;99.90;;;;;;5073052;28;19917;-62
2022/02/20 02:16:45;;;;;;;;;;;3.80;99.90;;;;;;5073171;28;19999;-62
2022/02/20 02:19:11;;;;;;;;;;;3.80;99.90;;;;;;5073391;28;19917;-63
2022/02/20 02:21:37;;;;;;;;;;;3.70;99.90;;;;;;5105270;28;20358;-62
2022/02/20 02:24:03;;;;;;;;;;;3.60;99.90;;;;;;5072830;28;19974;-63
2022/02/20 02:26:30;;;;;;;;;;;3.60;99.90;;;;;;5072681;28;20005;-62
2022/02/20 02:28:55;;;;;;;;;;;3.60;99.90;;;;;;5072500;28;19921;-62
2022/02/20 02:31:21;;;;;;;;;;;3.50;99.90;;;;;;5073042;28;20355;-62
2022/02/20 02:33:47;;;;;;;;;;;3.50;99.90;;;;;;5105358;28;19959;-62
2022/02/20 02:36:13;;;;;;;;;;;3.50;99.90;;;;;;5072853;28;20380;-62
2022/02/20 02:38:38;;;;;;;;;;;3.50;99.90;;;;;;5072795;28;19923;-62
2022/02/20 02:41:06;;;;;;;;;;;3.40;99.90;;;;;;5072894;28;19916;-62
2022/02/20 02:43:35;;;;;;;;;;;3.40;99.90;;;;;;5072479;28;19927;-62
2022/02/20 02:46:00;;;;;;;;;;;3.30;99.90;;;;;;5072607;28;19916;-62
2022/02/20 02:48:26;;;;;;;;;;;3.30;99.90;;;;;;5072325;28;19978;-62
2022/02/20 02:50:52;;;;;;;;;;;3.20;99.90;;;;;;5072834;28;19917;-62
2022/02/20 02:53:18;;;;;;;;;;;3.20;99.90;;;;;;5072680;28;19927;-62
2022/02/20 02:55:47;;;;;;;;;;;3.20;99.90;;;;;;5073235;28;19920;-62
2022/02/20 02:58:17;;;;;;;;;;;3.10;99.90;;;;;;5072554;28;19923;-62
2022/02/20 03:00:43;;;;;;;;;;;3.10;99.90;;;;;;5072247;28;20027;-62
2022/02/20 03:03:08;;;;;;;;;;;3.10;99.90;;;;;;5072236;28;19975;-62
2022/02/20 03:05:34;;;;;;;;;;;3.30;99.90;;;;;;5072691;28;19920;-62
2022/02/20 03:08:00;;;;;;;;;;;3.20;99.90;;;;;;5072626;28;19920;-62
2022/02/20 03:10:25;;;;;;;;;;;3.10;99.90;;;;;;5072584;28;20214;-62
2022/02/20 03:12:51;;;;;;;;;;;3.10;99.90;;;;;;5072218;28;19923;-62
2022/02/20 03:15:16;;;;;;;;;;;3.10;99.90;;;;;;5072333;28;19969;-62
2022/02/20 03:17:42;;;;;;;;;;;3.10;99.90;;;;;;5072114;28;20007;-62
2022/02/20 03:20:08;;;;;;;;;;;3.10;99.90;;;;;;5072456;28;19997;-62
2022/02/20 03:22:34;;;;;;;;;;;3.00;99.90;;;;;;5072349;28;19939;-63
2022/02/20 03:24:59;;;;;;;;;;;3.00;99.90;;;;;;5072002;28;19924;-62
2022/02/20 03:27:25;;;;;;;;;;;2.90;99.90;;;;;;5070974;28;19924;-62
2022/02/20 03:29:50;;;;;;;;;;;2.90;99.90;;;;;;5072267;28;19968;-62
2022/02/20 03:32:16;;;;;;;;;;;2.90;99.90;;;;;;5072326;28;19923;-62
2022/02/20 03:34:42;;;;;;;;;;;3.00;99.90;;;;;;5071971;28;19942;-63
2022/02/20 03:37:07;;;;;;;;;;;2.90;99.90;;;;;;5072105;28;19917;-62
2022/02/20 03:39:33;;;;;;;;;;;3.00;99.90;;;;;;5070854;28;19938;-62
2022/02/20 03:41:58;;;;;;;;;;;3.10;99.90;;;;;;5104663;28;19916;-62
2022/02/20 03:44:24;;;;;;;;;;;3.10;99.90;;;;;;5072028;28;20079;-62
2022/02/20 03:46:49;;;;;;;;;;;3.20;99.90;;;;;;5072172;28;19994;-62
2022/02/20 03:49:15;;;;;;;;;;;3.30;99.90;;;;;;5072180;28;19962;-62
2022/02/20 03:51:40;;;;;;;;;;;3.30;99.90;;;;;;5072270;28;20370;-62
2022/02/20 03:54:06;;;;;;;;;;;3.30;99.90;;;;;;5072145;28;19959;-62
2022/02/20 03:56:31;;;;;;;;;;;3.30;99.90;;;;;;5073790;28;19916;-63
2022/02/20 03:58:57;;;;;;;;;;;3.40;99.90;;;;;;5075415;28;19939;-62
2022/02/20 04:01:22;;;;;;;;;;;3.40;99.90;;;;;;5075365;28;20031;-63
2022/02/20 04:03:48;;;;;;;;;;;3.30;99.90;;;;;;5073994;28;19920;-63
2022/02/20 04:06:13;;;;;;;;;;;3.40;99.90;;;;;;5075440;28;19939;-63
2022/02/20 04:08:39;;;;;;;;;;;3.30;99.90;;;;;;5075344;28;19916;-63
2022/02/20 04:11:04;;;;;;;;;;;3.30;99.90;;;;;;5075238;28;20366;-63
2022/02/20 04:13:30;;;;;;;;;;;3.30;99.90;;;;;;5075075;28;19922;-63
2022/02/20 04:15:56;;;;;;;;;;;3.30;99.90;;;;;;5075086;28;20011;-63
2022/02/20 04:18:21;;;;;;;;;;;3.30;99.90;;;;;;5075290;28;19917;-64
2022/02/20 04:20:47;;;;;;;;;;;3.30;99.90;;;;;;5075577;28;19921;-63
2022/02/20 04:23:13;;;;;;;;;;;3.30;99.90;;;;;;5075155;28;19924;-63
2022/02/20 04:25:38;;;;;;;;;;;3.40;99.90;;;;;;5074998;28;19969;-63
2022/02/20 04:28:04;;;;;;;;;;;3.30;99.90;;;;;;5074752;28;19931;-63
2022/02/20 04:30:30;;;;;;;;;;;3.30;99.90;;;;;;5074922;28;19916;-63
2022/02/20 04:32:56;;;;;;;;;;;3.40;99.90;;;;;;5074910;28;20412;-63
2022/02/20 04:35:22;;;;;;;;;;;3.40;99.90;;;;;;5074752;28;19923;-63
2022/02/20 04:37:48;;;;;;;;;;;3.40;99.90;;;;;;5074876;28;20007;-63
2022/02/20 04:40:13;;;;;;;;;;;3.40;99.90;;;;;;5074857;28;19955;-63
2022/02/20 04:42:39;;;;;;;;;;;3.40;99.90;;;;;;5074615;28;19999;-62
2022/02/20 04:45:05;;;;;;;;;;;3.40;99.90;;;;;;5074675;28;20446;-62
2022/02/20 04:47:30;;;;;;;;;;;3.40;99.90;;;;;;5074396;28;19939;-63
2022/02/20 04:49:56;;;;;;;;;;;3.40;99.90;;;;;;5074746;28;20061;-63
2022/02/20 04:52:21;;;;;;;;;;;3.40;99.90;;;;;;5074774;28;19999;-63
2022/02/20 04:54:47;;;;;;;;;;;3.40;99.90;;;;;;5074594;28;20355;-63
2022/02/20 04:57:13;;;;;;;;;;;3.40;99.90;;;;;;5074363;28;19916;-63
2022/02/20 04:59:38;;;;;;;;;;;3.50;99.90;;;;;;5074556;28;19989;-62
2022/02/20 05:02:04;;;;;;;;;;;3.50;99.90;;;;;;5074839;28;19920;-61
2022/02/20 05:04:29;;;;;;;;;;;3.50;99.90;;;;;;5074403;28;19928;-62
2022/02/20 05:06:55;;;;;;;;;;;3.60;99.90;;;;;;5074094;28;20286;-63
2022/02/20 05:09:20;;;;;;;;;;;3.50;99.90;;;;;;5074223;28;19962;-62
2022/02/20 05:11:46;;;;;;;;;;;3.60;99.90;;;;;;5074260;28;20002;-62
2022/02/20 05:14:11;;;;;;;;;;;3.60;99.90;;;;;;5074110;28;19916;-63
2022/02/20 05:16:38;;;;;;;;;;;3.70;99.90;;;;;;5074148;28;20439;-63
2022/02/20 05:19:04;;;;;;;;;;;3.60;99.90;;;;;;5074286;28;19916;-63
2022/02/20 05:21:30;;;;;;;;;;;3.70;99.90;;;;;;5074091;28;19924;-63
2022/02/20 05:23:55;;;;;;;;;;;3.70;99.90;;;;;;5072308;28;20035;-63
2022/02/20 05:26:21;;;;;;;;;;;3.70;99.90;;;;;;5073856;28;19963;-62
2022/02/20 05:28:46;;;;;;;;;;;3.80;99.90;;;;;;5073677;28;20444;-62
2022/02/20 05:31:12;;;;;;;;;;;3.80;99.90;;;;;;5074000;28;19917;-62
2022/02/20 05:33:38;;;;;;;;;;;3.80;99.90;;;;;;5074014;28;19916;-62
2022/02/20 05:36:03;;;;;;;;;;;3.80;99.90;;;;;;5073760;28;19924;-62
2022/02/20 05:38:29;;;;;;;;;;;3.80;99.90;;;;;;5073844;28;19921;-62
2022/02/20 05:40:54;;;;;;;;;;;3.90;99.90;;;;;;5073640;28;19920;-62
2022/02/20 05:43:20;;;;;;;;;;;3.90;99.90;;;;;;5073242;28;19928;-62
2022/02/20 05:45:45;;;;;;;;;;;3.90;99.90;;;;;;5073606;28;19916;-62
2022/02/20 05:48:11;;;;;;;;;;;3.80;99.90;;;;;;5073562;28;19939;-62
2022/02/20 05:50:37;;;;;;;;;;;3.80;99.90;;;;;;5073515;28;20281;-62
2022/02/20 05:53:02;;;;;;;;;;;3.90;99.90;;;;;;5073348;28;19930;-62
2022/02/20 05:55:28;;;;;;;;;;;3.90;99.90;;;;;;5073276;28;19951;-62
2022/02/20 05:57:54;;;;;;;;;;;3.80;99.90;;;;;;5073152;28;19942;-62
2022/02/20 06:00:21;;;;;;;;;;;3.90;99.90;;;;;;5073382;28;20327;-61
2022/02/20 06:02:46;;;;;;;;;;;3.80;99.90;;;;;;5073188;28;19923;-62
2022/02/20 06:05:12;;;;;;;;;;;3.90;99.90;;;;;;5073192;28;20285;-62
2022/02/20 06:07:38;;;;;;;;;;;3.90;99.90;;;;;;5073021;28;19916;-62
2022/02/20 06:10:04;;;;;;;;;;;3.90;99.90;;;;;;5073027;28;20371;-62
2022/02/20 06:12:30;;;;;;;;;;;3.90;99.90;;;;;;5072856;28;20321;-62
2022/02/20 06:14:56;;;;;;;;;;;3.90;99.90;;;;;;5073167;28;19970;-62
2022/02/20 06:17:21;;;;;;;;;;;3.90;99.90;;;;;;5072573;28;20371;-61
2022/02/20 06:19:47;;;;;;;;;;;3.90;99.90;;;;;;5072629;28;19920;-61
2022/02/20 06:22:12;;;;;;;;;;;3.90;99.90;;;;;;5072872;28;20366;-61
2022/02/20 06:24:38;;;;;;;;;;;4.00;99.90;;;;;;5072652;28;19920;-61
2022/02/20 06:27:04;;;;;;;;;;;4.00;99.90;;;;;;5072529;28;20007;-62
2022/02/20 06:29:29;;;;;;;;;;;4.00;99.90;;;;;;5072446;28;19995;-61
2022/02/20 06:31:55;;;;;;;;;;;3.90;99.90;;;;;;5071482;28;20006;-61
2022/02/20 06:34:20;;;;;;;;;;;3.90;99.90;;;;;;5072701;28;19916;-61
2022/02/20 06:36:46;;;;;;;;;;;3.90;99.90;;;;;;5072606;28;19969;-61
2022/02/20 06:39:11;;;;;;;;;;;4.00;99.90;;;;;;5072544;28;19916;-62
2022/02/20 06:41:37;;;;;;;;;;;3.90;99.90;;;;;;5072249;28;20381;-61
2022/02/20 06:44:03;;;;;;;;;;;4.00;99.90;;;;;;5072546;28;19927;-61
2022/02/20 06:46:28;;;;;;;;;;;3.90;99.90;;;;;;5072368;28;19916;-61
2022/02/20 06:48:54;;;;;;;;;;;3.90;99.90;;;;;;5072176;28;19920;-60
2022/02/20 06:51:20;;;;;;;;;;;3.90;99.90;;;;;;5072500;28;19967;-61
2022/02/20 06:53:45;;;;;;;;;;;3.90;99.90;;;;;;5072282;28;19986;-61
2022/02/20 06:56:11;;;;;;;;;;;3.90;99.90;;;;;;5072626;28;19920;-61
2022/02/20 06:58:37;;;;;;;;;;;3.90;99.90;;;;;;5072295;28;20043;-61
2022/02/20 07:01:02;;;;;;;;;;;3.90;99.90;;;;;;5072175;28;19924;-62
2022/02/20 07:03:28;;;;;;;;;;;3.80;99.90;;;;;;5071995;28;20050;-62
2022/02/20 07:05:53;;;;;;;;;;;3.80;99.90;;;;;;5072105;28;19916;-61
2022/02/20 07:08:19;;;;;;;;;;;3.80;99.90;;;;;;5072117;28;20009;-61
2022/02/20 07:10:45;;;;;;;;;;;3.80;99.90;;;;;;5072075;28;19920;-62
2022/02/20 07:13:10;;;;;;;;;;;3.80;99.90;;;;;;5072296;28;19966;-61
2022/02/20 07:15:36;;;;;;;;;;;3.80;99.90;;;;;;5072325;28;19952;-61
2022/02/20 07:18:02;;;;;;;;;;;3.80;99.90;;;;;;5072104;28;20342;-61
2022/02/20 07:20:27;;;;;;;;;;;3.80;99.90;;;;;;5071970;28;19920;-61
2022/02/20 07:22:53;;;;;;;;;;;3.80;99.90;;;;;;5072648;28;19920;-50
2022/02/20 07:25:20;;;;;;;;;;;3.80;99.90;;;;;;5093273;28;19923;-50
2022/02/20 07:27:53;;;;;;;;;;;3.80;99.90;;;;;;5086015;28;20324;-47
2022/02/20 07:30:20;;;;;;;;;;;4.00;99.90;;;;;;5092469;28;19916;-49
2022/02/20 07:32:46;;;;;;;;;;;3.90;99.90;;;;;;5096723;28;20289;-48
2022/02/20 07:35:11;;;;;;;;;;;3.90;99.90;;;;;;5096373;28;19922;-49
2022/02/20 07:37:37;;;;;;;;;;;3.90;99.90;;;;;;5096819;28;20006;-47
2022/02/20 07:40:03;;;;;;;;;;;4.00;99.90;;;;;;5096295;28;19923;-49
2022/02/20 07:42:28;;;;;;;;;;;4.00;99.90;;;;;;5096249;28;19923;-49
2022/02/20 07:44:54;;;;;;;;;;;4.00;99.90;;;;;;5096336;28;19967;-51
2022/02/20 07:47:20;;;;;;;;;;;4.10;99.90;;;;;;5095252;28;19916;-52
2022/02/20 07:49:46;;;;;;;;;;;4.10;99.90;;;;;;5096060;28;20370;-49
2022/02/20 07:52:11;;;;;;;;;;;4.20;99.90;;;;;;5096169;28;19928;-50
2022/02/20 07:54:37;;;;;;;;;;;4.30;99.90;;;;;;5095973;28;19929;-51
2022/02/20 07:57:02;;;;;;;;;;;4.40;99.90;;;;;;5095822;28;19970;-51
2022/02/20 07:59:28;;;;;;;;;;;4.40;99.90;;;;;;5096139;28;19916;-48
2022/02/20 08:01:54;;;;;;;;;;;4.50;99.90;;;;;;5095963;28;20374;-47
2022/02/20 08:04:19;;;;;;;;;;;4.50;99.90;;;;;;5094530;28;19931;-50
2022/02/20 08:06:45;;;;;;;;;;;4.60;99.90;;;;;;5095851;28;19927;-49
2022/02/20 08:09:11;;;;;;;;;;;4.60;99.90;;;;;;5095656;28;19916;-51
2022/02/20 08:11:37;;;;;;;;;;;4.60;99.90;;;;;;5095848;28;19916;-49
2022/02/20 08:14:02;;;;;;;;;;;4.80;99.90;;;;;;5095438;28;20293;-48
2022/02/20 08:16:28;;;;;;;;;;;4.80;99.90;;;;;;5095856;28;19916;-48
2022/02/20 08:18:54;;;;;;;;;;;4.90;99.90;;;;;;5095529;28;19915;-52
2022/02/20 08:21:19;;;;;;;;;;;5.00;99.90;;;;;;5095694;28;19927;-51
2022/02/20 08:23:45;;;;;;;;;;;5.00;99.90;;;;;;5095271;28;19924;-51
2022/02/20 08:26:11;;;;;;;;;;;5.10;99.90;;;;;;5095619;28;20323;-49
2022/02/20 08:28:36;;;;;;;;;;;5.10;99.90;;;;;;5095145;28;19923;-50
2022/02/20 08:31:02;;;;;;;;;;;5.20;99.90;;;;;;5095500;28;20488;-52
2022/02/20 08:33:28;;;;;;;;;;;5.20;99.90;;;;;;5095462;28;19922;-52
2022/02/20 08:35:53;;;;;;;;;;;5.30;99.90;;;;;;5095243;28;20292;-51
2022/02/20 08:38:21;;;;;;;;;;;5.40;99.90;;;;;;5093503;28;19916;-49
2022/02/20 08:40:50;;;;;;;;;;;5.40;99.90;;;;;;5095508;28;19923;-49
2022/02/20 08:43:17;;;;;;;;;;;5.50;99.90;;;;;;5094513;28;20450;-52
2022/02/20 08:45:44;;;;;;;;;;;5.60;99.90;;;;;;5095448;28;20263;-50
2022/02/20 08:48:10;;;;;;;;;;;5.60;99.90;;;;;;5095298;28;19923;-52
2022/02/20 08:50:35;;;;;;;;;;;5.70;99.90;;;;;;5094900;28;19920;-50
2022/02/20 08:53:01;;;;;;;;;;;5.80;99.90;;;;;;5094769;28;20297;-52
2022/02/20 08:55:27;;;;;;;;;;;5.80;99.90;;;;;;5094657;28;19923;-51
2022/02/20 08:57:53;;;;;;;;;;;5.90;99.90;;;;;;5095074;28;19937;-51
2022/02/20 09:00:18;;;;;;;;;;;6.00;99.90;;;;;;5094804;28;19916;-48
2022/02/20 09:02:44;;;;;;;;;;;6.10;99.90;;;;;;5095245;28;19922;-47
2022/02/20 09:05:10;;;;;;;;;;;6.20;99.90;;;;;;5094637;28;19920;-51
2022/02/20 09:07:35;;;;;;;;;;;6.20;99.90;;;;;;5094831;28;20437;-50
2022/02/20 09:10:04;;;;;;;;;;;6.30;99.90;;;;;;5094854;28;19969;-52
2022/02/20 09:12:30;;;;;;;;;;;6.40;99.90;;;;;;5094436;28;20376;-52
2022/02/20 09:14:55;;;;;;;;;;;6.40;99.90;;;;;;5094575;28;20332;-50
2022/02/20 09:17:21;;;;;;;;;;;6.50;99.90;;;;;;5094325;28;19916;-48
2022/02/20 09:19:46;;;;;;;;;;;6.70;99.90;;;;;;5093138;28;19916;-51
2022/02/20 09:22:14;;;;;;;;;;;6.80;99.90;;;;;;5094304;28;19923;-50
2022/02/20 09:24:39;;;;;;;;;;;6.90;99.90;;;;;;5094431;28;19927;-52
2022/02/20 09:27:05;;;;;;;;;;;7.00;99.90;;;;;;5094443;28;19920;-51
2022/02/20 09:29:33;;;;;;;;;;;7.10;99.90;;;;;;5094097;28;20347;-52
2022/02/20 09:32:00;;;;;;;;;;;7.30;99.90;;;;;;5094215;28;20002;-50
2022/02/20 09:34:26;;;;;;;;;;;7.40;99.90;;;;;;5093990;28;19923;-51
2022/02/20 09:36:51;;;;;;;;;;;7.50;99.90;;;;;;5093976;28;19916;-52
2022/02/20 09:39:17;;;;;;;;;;;7.70;99.90;;;;;;5094413;28;19931;-52
2022/02/20 09:41:42;;;;;;;;;;;7.80;99.90;;;;;;5093813;28;19923;-52
2022/02/20 09:44:08;;;;;;;;;;;7.90;99.90;;;;;;5093684;28;19920;-49
2022/02/20 09:46:34;;;;;;;;;;;8.00;99.90;;;;;;5093744;28;20389;-51
2022/02/20 09:49:00;;;;;;;;;;;8.10;99.90;;;;;;5093939;28;19938;-47
2022/02/20 09:51:26;;;;;;;;;;;8.20;99.90;;;;;;5092442;28;20338;-52
2022/02/20 09:53:51;;;;;;;;;;;8.30;99.90;;;;;;5092951;28;19961;-51
2022/02/20 09:56:17;;;;;;;;;;;8.20;99.90;;;;;;5093798;28;20327;-51
2022/02/20 09:58:43;;;;;;;;;;;8.30;99.90;;;;;;5093697;28;20018;-50
2022/02/20 10:01:12;;;;;;;;;;;8.40;99.90;;;;;;5092247;28;19916;-52
2022/02/20 10:03:39;;;;;;;;;;;8.40;99.90;;;;;;5093260;28;19920;-52
2022/02/20 10:06:08;;;;;;;;;;;8.40;99.90;;;;;;5093446;28;19926;-52
2022/02/20 10:08:40;;;;;;;;;;;8.40;99.90;;;;;;5093605;28;19923;-52
2022/02/20 10:11:16;;;;;;;;;;;8.50;99.90;;;;;;5092005;28;19916;-52
2022/02/20 10:13:42;;;;;;;;;;;8.50;99.90;;;;;;5093176;28;19982;-51
2022/02/20 10:16:24;;;;;;;;;;;8.50;99.90;;;;;;5093310;28;19956;-52
2022/02/20 10:18:51;;;;;;;;;;;8.60;99.90;;;;;;5093677;28;19920;-62
2022/02/20 10:21:17;;;;;;;;;;;8.50;99.90;;;;;;5093444;28;20465;-62
2022/02/20 10:23:42;;;;;;;;;;;8.60;99.90;;;;;;5093174;28;19920;-62
2022/02/20 10:26:18;;;;;;;;;;;8.70;99.90;;;;;;5092963;28;20324;-62
2022/02/20 10:28:58;;;;;;;;;;;8.70;99.90;;;;;;5092746;28;19920;-52
2022/02/20 10:31:37;;;;;;;;;;;8.70;99.90;;;;;;5093233;28;19916;-48
2022/02/20 10:34:03;;;;;;;;;;;8.80;99.90;;;;;;5092896;28;19915;-63
2022/02/20 10:36:48;;;;;;;;;;;8.80;99.90;;;;;;5092819;28;20366;-62
2022/02/20 10:39:22;;;;;;;;;;;8.80;99.90;;;;;;5092630;28;19915;-62
2022/02/20 10:41:48;;;;;;;;;;;8.80;99.90;;;;;;5091334;28;19955;-62
2022/02/20 10:44:14;;;;;;;;;;;8.80;99.90;;;;;;5092668;28;19975;-62
2022/02/20 10:46:39;;;;;;;;;;;8.80;99.90;;;;;;5092626;28;19998;-63
2022/02/20 10:49:05;;;;;;;;;;;8.90;99.90;;;;;;5092602;28;19926;-62
2022/02/20 10:51:38;;;;;;;;;;;8.90;99.90;;;;;;5092502;28;19916;-63
2022/02/20 10:54:03;;;;;;;;;;;8.80;99.90;;;;;;5092763;28;20323;-62
2022/02/20 10:56:39;;;;;;;;;;;8.80;99.90;;;;;;5092393;28;19916;-62
2022/02/20 10:59:05;;;;;;;;;;;8.90;99.90;;;;;;5092775;28;20488;-62
2022/02/20 11:01:31;;;;;;;;;;;8.90;99.90;;;;;;5092787;28;19963;-62
2022/02/20 11:04:08;;;;;;;;;;;8.90;99.90;;;;;;5092255;28;20385;-62
2022/02/20 11:06:34;;;;;;;;;;;8.90;99.90;;;;;;5092572;28;19916;-49
2022/02/20 11:09:01;;;;;;;;;;;8.90;99.90;;;;;;5092576;28;19923;-63
2022/02/20 11:11:47;;;;;;;;;;;9.00;99.90;;;;;;5092329;28;19920;-62
2022/02/20 11:14:14;;;;;;;;;;;8.90;99.90;;;;;;5092615;28;19969;-51
2022/02/20 11:16:43;;;;;;;;;;;8.90;99.90;;;;;;5092132;28;20375;-62
2022/02/20 11:19:10;;;;;;;;;;;8.90;99.90;;;;;;5092498;28;19919;-62
2022/02/20 11:21:40;;;;;;;;;;;8.90;99.90;;;;;;5092157;28;20262;-62
2022/02/20 11:24:06;;;;;;;;;;;9.00;99.90;;;;;;5092172;28;19978;-62
2022/02/20 11:26:33;;;;;;;;;;;9.00;99.90;;;;;;5092041;28;20445;-63
2022/02/20 11:28:58;;;;;;;;;;;9.00;99.90;;;;;;5091991;28;19920;-49
2022/02/20 11:31:24;;;;;;;;;;;9.00;99.90;;;;;;5092188;28;19916;-50
2022/02/20 11:33:53;;;;;;;;;;;9.00;99.90;;;;;;5092370;28;19969;-49
2022/02/20 11:36:19;;;;;;;;;;;9.10;99.90;;;;;;5092313;28;19916;-51
2022/02/20 11:39:05;;;;;;;;;;;9.10;99.90;;;;;;5089107;28;20385;-52
2022/02/20 11:41:30;;;;;;;;;;;9.10;99.90;;;;;;5087265;28;19922;-50
2022/02/20 11:44:09;;;;;;;;;;;9.10;99.90;;;;;;5088097;28;19920;-52
2022/02/20 11:46:44;;;;;;;;;;;9.10;99.90;;;;;;5090901;28;19923;-62
2022/02/20 11:49:16;;;;;;;;;;;9.10;99.90;;;;;;5089844;28;20365;-51
2022/02/20 11:51:55;;;;;;;;;;;9.20;99.90;;;;;;5091779;28;19916;-53
2022/02/20 11:54:21;;;;;;;;;;;9.10;99.90;;;;;;5092072;28;19916;-62
2022/02/20 11:57:06;;;;;;;;;;;9.10;99.90;;;;;;5092275;28;20002;-62
2022/02/20 11:59:31;;;;;;;;;;;9.20;99.90;;;;;;5092072;28;20332;-62
2022/02/20 12:02:12;;;;;;;;;;;9.20;99.90;;;;;;5091747;28;19969;-62
2022/02/20 12:04:55;;;;;;;;;;;9.10;99.90;;;;;;5092230;28;19963;-62
2022/02/20 12:07:33;;;;;;;;;;;9.10;99.90;;;;;;5092089;28;20011;-62
2022/02/20 12:10:17;;;;;;;;;;;9.10;99.90;;;;;;5091860;28;19916;-50
2022/02/20 12:12:45;;;;;;;;;;;9.10;99.90;;;;;;5090909;28;20352;-62
2022/02/20 12:15:30;;;;;;;;;;;9.10;99.90;;;;;;5091786;28;20381;-52
2022/02/20 12:18:11;;;;;;;;;;;9.10;99.90;;;;;;5094536;28;20247;-62
2022/02/20 12:20:52;;;;;;;;;;;9.10;99.90;;;;;;5094477;28;20342;-62
2022/02/20 12:23:31;;;;;;;;;;;9.10;99.90;;;;;;5095430;28;19996;-52
2022/02/20 12:25:59;;;;;;;;;;;9.10;99.90;;;;;;5095590;28;19916;-52
2022/02/20 12:28:31;;;;;;;;;;;9.10;99.90;;;;;;5095427;28;19963;-51
2022/02/20 12:30:57;;;;;;;;;;;9.10;99.90;;;;;;5095357;28;19932;-52
2022/02/20 12:33:29;;;;;;;;;;;9.10;99.90;;;;;;5095144;28;20003;-62
2022/02/20 12:35:55;;;;;;;;;;;9.10;99.90;;;;;;5095043;28;19944;-61
2022/02/20 12:38:20;;;;;;;;;;;9.00;99.90;;;;;;5095301;28;20031;-61
2022/02/20 12:40:47;;;;;;;;;;;9.10;99.90;;;;;;5095102;28;19998;-62
2022/02/20 12:43:13;;;;;;;;;;;9.10;99.90;;;;;;5095010;28;20448;-55
2022/02/20 12:45:44;;;;;;;;;;;9.10;99.90;;;;;;5094925;28;20014;-62
2022/02/20 12:48:11;;;;;;;;;;;9.10;99.90;;;;;;5094832;28;19915;-62
2022/02/20 12:50:47;;;;;;;;;;;9.20;99.90;;;;;;5094810;28;19923;-62
2022/02/20 12:53:13;;;;;;;;;;;9.10;99.90;;;;;;5093382;28;19997;-62
2022/02/20 12:55:40;;;;;;;;;;;9.10;99.90;;;;;;5094794;28;19927;-62
2022/02/20 12:58:07;;;;;;;;;;;9.10;99.90;;;;;;5094839;28;19919;-62
2022/02/20 13:00:34;;;;;;;;;;;9.20;99.90;;;;;;5094814;28;19920;-62
2022/02/20 13:02:59;;;;;;;;;;;9.10;99.90;;;;;;5094630;28;19931;-62
2022/02/20 13:05:32;;;;;;;;;;;9.10;99.90;;;;;;5094751;28;20380;-62
2022/02/20 13:08:07;;;;;;;;;;;9.10;99.90;;;;;;5094494;28;19938;-62
2022/02/20 13:10:34;;;;;;;;;;;9.20;99.90;;;;;;5094409;28;19923;-62
2022/02/20 13:13:00;;;;;;;;;;;9.20;99.90;;;;;;5094326;28;20464;-62
2022/02/20 13:15:26;;;;;;;;;;;9.20;99.90;;;;;;5094122;28;20034;-62
2022/02/20 13:17:54;;;;;;;;;;;9.20;99.90;;;;;;5094316;28;19974;-62
2022/02/20 13:20:37;;;;;;;;;;;9.20;99.90;;;;;;5094381;28;19916;-62
2022/02/20 13:23:12;;;;;;;;;;;9.20;99.90;;;;;;5094037;28;20389;-62
2022/02/20 13:25:38;;;;;;;;;;;9.30;99.90;;;;;;5094159;28;19915;-61
2022/02/20 13:28:03;;;;;;;;;;;9.30;99.90;;;;;;5093643;28;19920;-62
2022/02/20 13:30:30;;;;;;;;;;;9.20;99.90;;;;;;5094215;28;19931;-62
2022/02/20 13:33:05;;;;;;;;;;;9.20;99.90;;;;;;5093057;28;19998;-62
2022/02/20 13:35:34;;;;;;;;;;;9.20;99.90;;;;;;5094525;28;19915;-62
2022/02/20 13:38:01;;;;;;;;;;;9.30;99.90;;;;;;5094019;28;20039;-62
2022/02/20 13:40:26;;;;;;;;;;;9.20;99.90;;;;;;5094047;28;19931;-62
2022/02/20 13:42:59;;;;;;;;;;;9.20;99.90;;;;;;5094161;28;19920;-62
2022/02/20 13:45:24;;;;;;;;;;;9.20;99.90;;;;;;5092365;28;20010;-61
2022/02/20 13:47:50;;;;;;;;;;;9.20;99.90;;;;;;5093789;28;20002;-62
2022/02/20 13:50:19;;;;;;;;;;;9.20;99.90;;;;;;5093603;28;19922;-62
2022/02/20 13:52:46;;;;;;;;;;;9.20;99.90;;;;;;5093575;28;20377;-62
2022/02/20 13:55:29;;;;;;;;;;;9.20;99.90;;;;;;5093538;28;19943;-62
2022/02/20 13:57:55;;;;;;;;;;;9.10;99.90;;;;;;5093879;28;20015;-61
2022/02/20 14:00:22;;;;;;;;;;;9.10;99.90;;;;;;5093456;28;19923;-62
2022/02/20 14:02:48;;;;;;;;;;;9.10;99.90;;;;;;5093382;28;19916;-61
2022/02/20 14:05:17;;;;;;;;;;;9.10;99.90;;;;;;5093305;28;19927;-61
2022/02/20 14:07:43;;;;;;;;;;;9.10;99.90;;;;;;5092448;28;19981;-61
2022/02/20 14:10:09;;;;;;;;;;;9.10;99.90;;;;;;5093397;28;20375;-62
2022/02/20 14:12:40;;;;;;;;;;;9.20;99.90;;;;;;5093131;28;19924;-62
2022/02/20 14:15:11;;;;;;;;;;;9.20;99.90;;;;;;5093450;28;19923;-62
2022/02/20 14:17:56;;;;;;;;;;;9.20;99.90;;;;;;5093153;28;19915;-62
2022/02/20 14:20:24;;;;;;;;;;;9.20;99.90;;;;;;5093423;28;19947;-62
2022/02/20 14:22:50;;;;;;;;;;;9.10;99.90;;;;;;5091853;28;20006;-62
2022/02/20 14:25:17;;;;;;;;;;;9.10;99.90;;;;;;5093131;28;19989;-48
2022/02/20 14:27:48;;;;;;;;;;;9.20;99.90;;;;;;5092791;28;20338;-62
2022/02/20 14:30:22;;;;;;;;;;;9.20;99.90;;;;;;5093201;28;19927;-51